Time;durP1;ratioP1;P1;durP2;ratioP2;P2;SDS_P1;SDS_P2;PMS_P1;PMS_P2;Temp;Humidity;BMP_temperature;BMP_pressure;BME280_temperature;BME280_humidity;BME280_pressure;Samples;Min_cycle;Max_cycle;Signal;HPM_P1;HPM_P2
2023/12/31 00:00:15;;;;;;;13.47;9.20;;;;;;;;;;4990892;28;20737;-84
2023/12/31 00:02:46;;;;;;;16.33;10.07;;;;;;;;;;4988762;28;20229;-84
2023/12/31 00:05:15;;;;;;;22.83;10.80;;;;;;;;;;4991098;28;20193;-85
2023/12/31 00:07:45;;;;;;;17.47;9.80;;;;;;;;;;4991169;28;20202;-85
2023/12/31 00:10:17;;;;;;;24.57;11.20;;;;;;;;;;4992234;28;20193;-86
2023/12/31 00:12:45;;;;;;;18.03;10.63;;;;;;;;;;4991709;28;20201;-85
2023/12/31 00:15:13;;;;;;;20.70;11.13;;;;;;;;;;4991913;28;20232;-84
2023/12/31 00:17:42;;;;;;;17.43;10.03;;;;;;;;;;4992222;28;20582;-84
2023/12/31 00:20:10;;;;;;;18.07;10.43;;;;;;;;;;4991615;28;20251;-83
2023/12/31 00:22:40;;;;;;;24.90;10.67;;;;;;;;;;4991750;28;20247;-86
2023/12/31 00:25:10;;;;;;;20.00;10.13;;;;;;;;;;4991833;28;20726;-86
2023/12/31 00:27:38;;;;;;;28.47;10.97;;;;;;;;;;4986615;28;20209;-84
2023/12/31 00:30:06;;;;;;;20.43;10.47;;;;;;;;;;4991038;28;20674;-84
2023/12/31 00:32:36;;;;;;;23.67;10.90;;;;;;;;;;4990968;28;20324;-85
2023/12/31 00:35:05;;;;;;;20.67;11.27;;;;;;;;;;4990084;28;20291;-85
2023/12/31 00:37:35;;;;;;;21.10;10.97;;;;;;;;;;4990288;28;20220;-85
2023/12/31 00:40:03;;;;;;;20.23;10.40;;;;;;;;;;4990688;28;20272;-85
2023/12/31 00:42:35;;;;;;;24.20;10.50;;;;;;;;;;4990412;28;20216;-84
2023/12/31 00:45:05;;;;;;;25.07;10.63;;;;;;;;;;4991223;28;20209;-85
2023/12/31 00:47:35;;;;;;;24.60;10.00;;;;;;;;;;4997783;28;20209;-84
2023/12/31 00:50:07;;;;;;;25.10;11.43;;;;;;;;;;4998549;28;20624;-86
2023/12/31 00:52:36;;;;;;;12.37;8.60;;;;;;;;;;5000328;28;20186;-86
2023/12/31 00:55:10;;;;;;;16.63;9.03;;;;;;;;;;4997091;28;20237;-84
2023/12/31 00:57:41;;;;;;;14.03;9.40;;;;;;;;;;4990651;28;20217;-85
2023/12/31 01:00:16;;;;;;;93.47;36.07;;;;;;;;;;4991476;28;20265;-85
2023/12/31 01:02:47;;;;;;;14.33;9.10;;;;;;;;;;4990364;28;20531;-85
2023/12/31 01:05:17;;;;;;;16.90;9.47;;;;;;;;;;4989189;28;20302;-84
2023/12/31 01:07:47;;;;;;;12.53;8.77;;;;;;;;;;4991196;28;20284;-84
2023/12/31 01:10:15;;;;;;;21.73;10.70;;;;;;;;;;4990185;28;20260;-84
2023/12/31 01:12:46;;;;;;;15.00;9.70;;;;;;;;;;4989926;28;20213;-84
2023/12/31 01:15:19;;;;;;;16.23;9.67;;;;;;;;;;4990504;28;20267;-84
2023/12/31 01:17:49;;;;;;;15.27;8.37;;;;;;;;;;4991142;28;20189;-86
2023/12/31 01:20:21;;;;;;;16.03;8.47;;;;;;;;;;4991423;28;20205;-84
2023/12/31 01:22:50;;;;;;;21.50;8.93;;;;;;;;;;4990634;28;20286;-84
2023/12/31 01:25:21;;;;;;;13.80;9.57;;;;;;;;;;4990852;28;20205;-85
2023/12/31 01:27:52;;;;;;;19.67;10.27;;;;;;;;;;4990332;28;20227;-83
2023/12/31 01:30:23;;;;;;;16.70;8.83;;;;;;;;;;4989139;28;20649;-84
2023/12/31 01:32:54;;;;;;;19.67;9.30;;;;;;;;;;4989968;28;20240;-85
2023/12/31 01:35:22;;;;;;;13.90;8.97;;;;;;;;;;4989752;28;20221;-85
2023/12/31 01:37:52;;;;;;;21.87;8.77;;;;;;;;;;4994512;28;20204;-84
2023/12/31 01:40:23;;;;;;;16.67;8.93;;;;;;;;;;4997839;28;20206;-84
2023/12/31 01:42:53;;;;;;;14.63;8.50;;;;;;;;;;4997402;28;20205;-83
2023/12/31 01:45:24;;;;;;;12.27;8.90;;;;;;;;;;4999059;28;20634;-83
2023/12/31 01:47:52;;;;;;;12.23;9.00;;;;;;;;;;4999595;28;20205;-84
2023/12/31 01:50:21;;;;;;;17.37;8.47;;;;;;;;;;4991421;28;20201;-85
2023/12/31 01:52:51;;;;;;;15.17;9.33;;;;;;;;;;4990855;28;20594;-84
2023/12/31 01:55:20;;;;;;;14.40;8.60;;;;;;;;;;4990556;28;20745;-85
2023/12/31 01:57:47;;;;;;;15.17;8.93;;;;;;;;;;4990008;28;20634;-85
2023/12/31 02:00:16;;;;;;;17.67;9.10;;;;;;;;;;4990474;28;20220;-84
2023/12/31 02:02:47;;;;;;;14.63;8.47;;;;;;;;;;4991165;28;20197;-84
2023/12/31 02:05:17;;;;;;;14.97;8.57;;;;;;;;;;4989891;28;20209;-86
2023/12/31 02:07:47;;;;;;;14.03;8.53;;;;;;;;;;4990304;28;20205;-85
2023/12/31 02:10:19;;;;;;;14.67;9.33;;;;;;;;;;4990171;28;20267;-85
2023/12/31 02:12:49;;;;;;;13.43;7.97;;;;;;;;;;4989567;28;20773;-85
2023/12/31 02:15:31;;;;;;;16.53;9.00;;;;;;;;;;4990086;28;20237;-85
2023/12/31 02:18:01;;;;;;;13.60;8.07;;;;;;;;;;4989941;28;20211;-85
2023/12/31 02:20:33;;;;;;;14.43;7.97;;;;;;;;;;4989736;28;20682;-84
2023/12/31 02:23:03;;;;;;;11.93;7.77;;;;;;;;;;4991474;28;20197;-84
2023/12/31 02:25:33;;;;;;;12.10;6.63;;;;;;;;;;4993777;28;20586;-85
2023/12/31 02:28:04;;;;;;;15.10;7.27;;;;;;;;;;4993535;28;20205;-86
2023/12/31 02:30:33;;;;;;;12.90;7.73;;;;;;;;;;4996819;28;20194;-83
2023/12/31 02:33:03;;;;;;;11.53;7.37;;;;;;;;;;4995280;28;20320;-85
2023/12/31 02:35:32;;;;;;;13.57;8.70;;;;;;;;;;4992822;28;20357;-85
2023/12/31 02:38:01;;;;;;;15.57;8.77;;;;;;;;;;4992690;28;20205;-85
2023/12/31 02:40:30;;;;;;;11.97;7.23;;;;;;;;;;4993442;28;20292;-85
2023/12/31 02:43:00;;;;;;;13.13;7.37;;;;;;;;;;4992874;28;20213;-84
2023/12/31 02:45:31;;;;;;;13.27;8.20;;;;;;;;;;4994829;28;20220;-85
2023/12/31 02:48:00;;;;;;;11.97;6.93;;;;;;;;;;4993428;28;20296;-85
2023/12/31 02:50:31;;;;;;;15.03;7.73;;;;;;;;;;4992152;28;20204;-85
2023/12/31 02:52:59;;;;;;;9.80;6.07;;;;;;;;;;4993389;28;20213;-88
2023/12/31 02:55:28;;;;;;;10.23;6.30;;;;;;;;;;4992836;28;20264;-84
2023/12/31 02:57:57;;;;;;;8.57;6.37;;;;;;;;;;4993099;28;20209;-84
2023/12/31 03:00:27;;;;;;;10.67;6.17;;;;;;;;;;4993171;28;20217;-84
2023/12/31 03:02:59;;;;;;;12.33;6.10;;;;;;;;;;4991944;28;20267;-85
2023/12/31 03:05:28;;;;;;;12.93;6.90;;;;;;;;;;4993352;28;20185;-85
2023/12/31 03:07:59;;;;;;;6.70;5.80;;;;;;;;;;4993179;28;20230;-84
2023/12/31 03:10:27;;;;;;;10.53;6.60;;;;;;;;;;4991677;28;20229;-85
2023/12/31 03:12:57;;;;;;;8.83;5.57;;;;;;;;;;4992777;28;20664;-85
2023/12/31 03:15:28;;;;;;;8.73;6.07;;;;;;;;;;4992525;28;20236;-84
2023/12/31 03:17:58;;;;;;;10.00;6.63;;;;;;;;;;4992458;28;20258;-84
2023/12/31 03:20:30;;;;;;;9.20;5.77;;;;;;;;;;4992884;28;20740;-83
2023/12/31 03:23:01;;;;;;;12.67;6.03;;;;;;;;;;4991536;28;20205;-85
2023/12/31 03:25:29;;;;;;;13.27;6.87;;;;;;;;;;4991682;28;20232;-85
2023/12/31 03:28:02;;;;;;;25.77;13.50;;;;;;;;;;4991925;28;20197;-85
2023/12/31 03:30:31;;;;;;;12.40;7.30;;;;;;;;;;4991830;28;20647;-85
2023/12/31 03:33:04;;;;;;;12.43;5.90;;;;;;;;;;4990582;28;20327;-85
2023/12/31 03:35:34;;;;;;;15.50;8.83;;;;;;;;;;4991608;28;20233;-84
2023/12/31 03:38:04;;;;;;;10.23;7.50;;;;;;;;;;4992688;28;20189;-85
2023/12/31 03:40:33;;;;;;;15.93;8.13;;;;;;;;;;4996414;28;20215;-84
2023/12/31 03:43:06;;;;;;;8.50;6.57;;;;;;;;;;5005935;28;20198;-84
2023/12/31 03:45:36;;;;;;;9.57;6.57;;;;;;;;;;5011863;28;20207;-85
2023/12/31 03:48:06;;;;;;;15.83;9.67;;;;;;;;;;5012151;28;20213;-84
2023/12/31 03:50:35;;;;;;;14.17;7.83;;;;;;;;;;4992298;28;20201;-85
2023/12/31 03:53:06;;;;;;;10.30;6.60;;;;;;;;;;4992688;28;20220;-84
2023/12/31 03:55:35;;;;;;;14.57;6.67;;;;;;;;;;4991622;28;20328;-83
2023/12/31 03:58:06;;;;;;;14.73;6.83;;;;;;;;;;4990876;28;20248;-85
2023/12/31 04:00:37;;;;;;;11.37;7.47;;;;;;;;;;4992968;28;20595;-86
2023/12/31 04:03:11;;;;;;;11.17;7.83;;;;;;;;;;4990723;28;20213;-85
2023/12/31 04:05:41;;;;;;;9.73;6.77;;;;;;;;;;4993455;28;20213;-86
2023/12/31 04:08:10;;;;;;;21.57;14.43;;;;;;;;;;4991947;28;20619;-84
2023/12/31 04:10:40;;;;;;;24.33;13.43;;;;;;;;;;4990416;28;20213;-85
2023/12/31 04:13:11;;;;;;;35.17;16.50;;;;;;;;;;4990981;28;20201;-85
2023/12/31 04:15:42;;;;;;;23.97;12.83;;;;;;;;;;4991169;28;20221;-85
2023/12/31 04:18:15;;;;;;;15.77;7.50;;;;;;;;;;4990479;28;20615;-85
2023/12/31 04:20:47;;;;;;;11.20;7.10;;;;;;;;;;4991652;28;20201;-83
2023/12/31 04:23:15;;;;;;;14.40;6.97;;;;;;;;;;4991834;28;20659;-85
2023/12/31 04:25:46;;;;;;;26.20;14.43;;;;;;;;;;4991289;28;20201;-84
2023/12/31 04:28:14;;;;;;;43.23;22.73;;;;;;;;;;4995189;28;20240;-85
2023/12/31 04:30:43;;;;;;;15.00;9.60;;;;;;;;;;4994731;28;20268;-84
2023/12/31 04:33:13;;;;;;;12.03;6.40;;;;;;;;;;4990012;28;20783;-83
2023/12/31 04:35:43;;;;;;;16.23;9.13;;;;;;;;;;4990851;28;20316;-84
2023/12/31 04:38:12;;;;;;;45.33;22.37;;;;;;;;;;4991496;28;20237;-84
2023/12/31 04:40:42;;;;;;;32.73;14.57;;;;;;;;;;4990400;28;20209;-84
2023/12/31 04:43:12;;;;;;;14.03;7.67;;;;;;;;;;4991195;28;20224;-84
2023/12/31 04:45:42;;;;;;;9.27;5.73;;;;;;;;;;4989980;28;20193;-85
2023/12/31 04:48:10;;;;;;;8.30;5.80;;;;;;;;;;4990094;28;20284;-85
2023/12/31 04:50:43;;;;;;;26.43;13.47;;;;;;;;;;4990809;28;20208;-84
2023/12/31 04:53:10;;;;;;;20.13;11.50;;;;;;;;;;4990000;28;20205;-84
2023/12/31 04:55:39;;;;;;;20.37;11.60;;;;;;;;;;4989550;28;20316;-83
2023/12/31 04:58:09;;;;;;;21.77;11.10;;;;;;;;;;4990717;28;20368;-83
2023/12/31 05:00:39;;;;;;;7.70;5.47;;;;;;;;;;4990326;28;20232;-85
2023/12/31 05:03:08;;;;;;;7.23;5.07;;;;;;;;;;4990475;28;20201;-84
2023/12/31 05:05:38;;;;;;;6.97;5.60;;;;;;;;;;4990241;28;20223;-84
2023/12/31 05:08:08;;;;;;;8.83;5.23;;;;;;;;;;4989631;28;20234;-84
2023/12/31 05:10:38;;;;;;;9.23;5.63;;;;;;;;;;4990641;28;20543;-84
2023/12/31 05:13:09;;;;;;;9.70;4.93;;;;;;;;;;4990381;28;20221;-84
2023/12/31 05:15:39;;;;;;;9.83;6.30;;;;;;;;;;4989802;28;20725;-85
2023/12/31 05:18:09;;;;;;;8.27;6.13;;;;;;;;;;4991269;28;20225;-85
2023/12/31 05:20:39;;;;;;;10.13;6.13;;;;;;;;;;4990458;28;20260;-85
2023/12/31 05:23:10;;;;;;;13.73;9.80;;;;;;;;;;4993817;28;20209;-86
2023/12/31 05:25:41;;;;;;;12.93;7.80;;;;;;;;;;4995182;28;20197;-84
2023/12/31 05:28:10;;;;;;;11.83;8.97;;;;;;;;;;4997832;28;20210;-84
2023/12/31 05:30:41;;;;;;;14.70;7.47;;;;;;;;;;4995289;28;20725;-84
2023/12/31 05:33:09;;;;;;;5.57;5.00;;;;;;;;;;4991146;28;20272;-84
2023/12/31 05:35:39;;;;;;;12.17;6.13;;;;;;;;;;4992953;28;20233;-84
2023/12/31 05:38:09;;;;;;;9.07;6.40;;;;;;;;;;4994324;28;20612;-83
2023/12/31 05:40:38;;;;;;;10.70;5.83;;;;;;;;;;4996381;28;20312;-85
2023/12/31 05:43:08;;;;;;;8.67;5.27;;;;;;;;;;4997536;28;20205;-83
2023/12/31 05:45:36;;;;;;;6.93;4.97;;;;;;;;;;4991908;28;20670;-83
2023/12/31 05:48:06;;;;;;;8.87;5.67;;;;;;;;;;4989970;28;20292;-84
2023/12/31 05:50:37;;;;;;;11.77;6.37;;;;;;;;;;4990146;28;20367;-85
2023/12/31 05:53:07;;;;;;;9.20;5.57;;;;;;;;;;4990481;28;20190;-85
2023/12/31 05:55:40;;;;;;;11.87;7.57;;;;;;;;;;4989508;28;20365;-85
2023/12/31 05:58:09;;;;;;;11.90;4.87;;;;;;;;;;4988278;28;20667;-84
2023/12/31 06:00:37;;;;;;;10.43;5.63;;;;;;;;;;4994168;28;20207;-84
2023/12/31 06:03:06;;;;;;;9.83;5.70;;;;;;;;;;4994339;28;20229;-85
2023/12/31 06:05:35;;;;;;;9.00;4.73;;;;;;;;;;4994934;28;20295;-84
2023/12/31 06:08:04;;;;;;;7.57;5.33;;;;;;;;;;5002354;28;20278;-83
2023/12/31 06:10:39;;;;;;;9.03;5.23;;;;;;;;;;4991015;28;20738;-84
2023/12/31 06:13:08;;;;;;;15.80;6.37;;;;;;;;;;4989637;28;20223;-83
2023/12/31 06:15:39;;;;;;;5.90;5.10;;;;;;;;;;4992518;28;20245;-85
2023/12/31 06:18:06;;;;;;;11.97;8.47;;;;;;;;;;4975814;28;20280;-84
2023/12/31 06:20:38;;;;;;;10.73;7.47;;;;;;;;;;4987363;28;20244;-84
2023/12/31 06:23:08;;;;;;;8.87;6.17;;;;;;;;;;5002051;28;20287;-83
2023/12/31 06:25:37;;;;;;;6.13;5.57;;;;;;;;;;4994263;28;20209;-84
2023/12/31 06:28:07;;;;;;;16.93;10.17;;;;;;;;;;4992474;28;20666;-84
2023/12/31 06:30:51;;;;;;;10.63;7.53;;;;;;;;;;4995971;28;20211;-84
2023/12/31 06:33:23;;;;;;;8.97;5.97;;;;;;;;;;5002035;28;20676;-85
2023/12/31 06:35:53;;;;;;;7.30;5.57;;;;;;;;;;5015995;28;20282;-86
2023/12/31 06:38:20;;;;;;;6.10;5.47;;;;;;;;;;5020759;28;20200;-84
2023/12/31 06:40:52;;;;;;;14.00;7.83;;;;;;;;;;5000341;28;20221;-83
2023/12/31 06:43:20;;;;;;;9.87;6.73;;;;;;;;;;4992932;28;20716;-85
2023/12/31 06:45:53;;;;;;;11.03;5.37;;;;;;;;;;4994090;28;20213;-84
2023/12/31 06:48:21;;;;;;;12.67;6.77;;;;;;;;;;5001845;28;20198;-84
2023/12/31 06:50:50;;;;;;;7.93;5.63;;;;;;;;;;5000689;28;20686;-85
2023/12/31 06:53:21;;;;;;;9.30;7.37;;;;;;;;;;5000549;28;20224;-86
2023/12/31 06:55:49;;;;;;;11.57;7.57;;;;;;;;;;4994011;28;20344;-85
2023/12/31 06:58:21;;;;;;;12.57;8.03;;;;;;;;;;4993948;28;20288;-84
2023/12/31 07:00:49;;;;;;;17.13;9.97;;;;;;;;;;4994008;28;20201;-85
2023/12/31 07:03:17;;;;;;;14.33;9.87;;;;;;;;;;4993566;28;20210;-85
2023/12/31 07:05:44;;;;;;;23.73;12.30;;;;;;;;;;4992516;28;20201;-84
2023/12/31 07:08:14;;;;;;;23.20;12.67;;;;;;;;;;4991625;28;20221;-86
2023/12/31 07:10:45;;;;;;;23.27;12.27;;;;;;;;;;4994672;28;20616;-85
2023/12/31 07:13:12;;;;;;;26.50;13.70;;;;;;;;;;5001477;28;20220;-85
2023/12/31 07:15:43;;;;;;;25.63;14.33;;;;;;;;;;5012161;28;20200;-84
2023/12/31 07:18:16;;;;;;;29.47;13.30;;;;;;;;;;5018334;28;20305;-83
2023/12/31 07:20:46;;;;;;;27.00;14.10;;;;;;;;;;5013037;28;20197;-83
2023/12/31 07:23:14;;;;;;;28.33;14.83;;;;;;;;;;5021459;28;20209;-83
2023/12/31 07:25:41;;;;;;;27.77;13.70;;;;;;;;;;5021963;28;20197;-83
2023/12/31 07:28:10;;;;;;;32.13;13.93;;;;;;;;;;5020430;28;20200;-84
2023/12/31 07:30:39;;;;;;;25.10;13.20;;;;;;;;;;5012683;28;20288;-84
2023/12/31 07:33:08;;;;;;;24.63;13.83;;;;;;;;;;5011263;28;20294;-84
2023/12/31 07:35:37;;;;;;;23.20;12.50;;;;;;;;;;5011504;28;20200;-85
2023/12/31 07:38:08;;;;;;;24.17;13.20;;;;;;;;;;5010236;28;20197;-84
2023/12/31 07:40:37;;;;;;;23.43;13.47;;;;;;;;;;5010735;28;20230;-84
2023/12/31 07:43:06;;;;;;;17.93;11.83;;;;;;;;;;5011136;28;20199;-84
2023/12/31 07:45:35;;;;;;;20.87;13.00;;;;;;;;;;5011146;28;20210;-85
2023/12/31 07:48:08;;;;;;;28.30;13.70;;;;;;;;;;5012395;28;20584;-86
2023/12/31 07:50:39;;;;;;;30.10;14.87;;;;;;;;;;5014259;28;20271;-85
2023/12/31 07:53:09;;;;;;;23.53;14.20;;;;;;;;;;5021037;28;20196;-83
2023/12/31 07:55:39;;;;;;;23.53;14.77;;;;;;;;;;5016084;28;20205;-84
2023/12/31 07:58:10;;;;;;;25.23;13.67;;;;;;;;;;5011931;28;20221;-85
2023/12/31 08:00:40;;;;;;;21.87;11.37;;;;;;;;;;4997474;28;20224;-83
2023/12/31 08:03:11;;;;;;;20.57;11.37;;;;;;;;;;4998520;28;20202;-85
2023/12/31 08:05:41;;;;;;;16.83;11.17;;;;;;;;;;4990988;28;20197;-84
2023/12/31 08:08:12;;;;;;;20.07;11.83;;;;;;;;;;4990937;28;20205;-85
2023/12/31 08:10:42;;;;;;;22.60;11.90;;;;;;;;;;4990416;28;20280;-86
2023/12/31 08:13:15;;;;;;;18.83;11.03;;;;;;;;;;4990773;28;20686;-87
2023/12/31 08:15:45;;;;;;;17.07;11.27;;;;;;;;;;4990463;28;20292;-84
2023/12/31 08:18:13;;;;;;;21.17;11.33;;;;;;;;;;4990155;28;20282;-82
2023/12/31 08:20:44;;;;;;;19.37;10.67;;;;;;;;;;4991025;28;20254;-85
2023/12/31 08:23:15;;;;;;;20.27;11.17;;;;;;;;;;4991179;28;20248;-84
2023/12/31 08:25:45;;;;;;;17.60;10.43;;;;;;;;;;4991479;28;20201;-84
2023/12/31 08:28:16;;;;;;;22.97;11.57;;;;;;;;;;4989701;28;20205;-83
2023/12/31 08:30:45;;;;;;;19.37;11.03;;;;;;;;;;4989611;28;20210;-86
2023/12/31 08:33:12;;;;;;;20.40;11.00;;;;;;;;;;4990653;28;20244;-84
2023/12/31 08:35:41;;;;;;;16.57;10.10;;;;;;;;;;4990305;28;20203;-84
2023/12/31 08:38:11;;;;;;;19.87;12.00;;;;;;;;;;4990730;28;20614;-84
2023/12/31 08:40:40;;;;;;;17.93;10.53;;;;;;;;;;4990179;28;20258;-83
2023/12/31 08:43:14;;;;;;;17.80;10.07;;;;;;;;;;4988783;28;20200;-84
2023/12/31 08:45:43;;;;;;;12.57;8.83;;;;;;;;;;4971802;28;20229;-85
2023/12/31 08:48:12;;;;;;;16.93;10.03;;;;;;;;;;4971355;28;20212;-84
2023/12/31 08:50:42;;;;;;;17.07;10.43;;;;;;;;;;4970103;28;20201;-85
2023/12/31 08:53:11;;;;;;;16.10;9.47;;;;;;;;;;4970545;28;20298;-84
2023/12/31 08:55:45;;;;;;;18.63;10.77;;;;;;;;;;4972433;28;20649;-85
2023/12/31 08:58:13;;;;;;;16.73;9.80;;;;;;;;;;4975023;28;20465;-85
2023/12/31 09:00:43;;;;;;;14.20;9.00;;;;;;;;;;4990442;28;20670;-84
2023/12/31 09:03:11;;;;;;;13.30;8.90;;;;;;;;;;4990792;28;20211;-85
2023/12/31 09:05:41;;;;;;;17.20;9.77;;;;;;;;;;4989580;28;20681;-86
2023/12/31 09:08:10;;;;;;;19.77;9.80;;;;;;;;;;4970094;28;20550;-85
2023/12/31 09:10:40;;;;;;;17.40;10.87;;;;;;;;;;4988556;28;20651;-85
2023/12/31 09:13:10;;;;;;;15.27;8.70;;;;;;;;;;4990282;28;20279;-83
2023/12/31 09:15:40;;;;;;;11.57;8.43;;;;;;;;;;4989880;28;20302;-85
2023/12/31 09:18:09;;;;;;;13.03;8.30;;;;;;;;;;4989381;28;20232;-84
2023/12/31 09:20:40;;;;;;;16.03;8.07;;;;;;;;;;4990543;28;20906;-84
2023/12/31 09:23:19;;;;;;;11.53;7.83;;;;;;;;;;4988186;28;20208;-85
2023/12/31 09:25:46;;;;;;;9.47;7.43;;;;;;;;;;4997990;28;20213;-85
2023/12/31 09:28:28;;;;;;;12.10;7.73;;;;;;;;;;4991836;28;20224;-87
2023/12/31 09:30:56;;;;;;;10.27;7.37;;;;;;;;;;4990613;28;20742;-85
2023/12/31 09:36:11;;;;;;;13.13;8.23;;;;;;;;;;5009126;28;20192;-84
2023/12/31 09:38:43;;;;;;;9.40;6.37;;;;;;;;;;5014668;28;20219;-85
2023/12/31 09:41:15;;;;;;;11.50;7.50;;;;;;;;;;4997459;28;20229;-85
2023/12/31 09:43:47;;;;;;;14.13;8.37;;;;;;;;;;4984806;28;20646;-84
2023/12/31 09:46:17;;;;;;;18.40;8.33;;;;;;;;;;4982184;28;20252;-84
2023/12/31 09:48:48;;;;;;;17.80;7.97;;;;;;;;;;4988672;28;20723;-85
2023/12/31 09:51:17;;;;;;;11.27;8.00;;;;;;;;;;4981929;28;20244;-84
2023/12/31 09:53:46;;;;;;;10.17;6.30;;;;;;;;;;4989991;28;20239;-85
2023/12/31 09:56:14;;;;;;;8.47;6.53;;;;;;;;;;4989539;28;20280;-85
2023/12/31 09:58:48;;;;;;;9.97;6.77;;;;;;;;;;4990032;28;20692;-84
2023/12/31 10:01:20;;;;;;;8.97;6.87;;;;;;;;;;4982659;28;20298;-86
2023/12/31 10:03:47;;;;;;;8.37;6.27;;;;;;;;;;4989325;28;20642;-85
2023/12/31 10:06:17;;;;;;;10.83;7.17;;;;;;;;;;4990237;28;20242;-84
2023/12/31 10:08:47;;;;;;;12.33;6.90;;;;;;;;;;4988854;28;20234;-84
2023/12/31 10:11:17;;;;;;;11.70;7.53;;;;;;;;;;4988591;28;20225;-85
2023/12/31 10:13:49;;;;;;;9.10;7.13;;;;;;;;;;4990488;28;20226;-84
2023/12/31 10:16:24;;;;;;;7.50;5.63;;;;;;;;;;4991028;28;20292;-84
2023/12/31 10:18:58;;;;;;;6.40;5.80;;;;;;;;;;4982436;28;20360;-85
2023/12/31 10:21:28;;;;;;;6.70;5.77;;;;;;;;;;4989302;28;20230;-85
2023/12/31 10:23:58;;;;;;;11.30;6.57;;;;;;;;;;4991045;28;20228;-85
2023/12/31 10:26:30;;;;;;;7.70;6.37;;;;;;;;;;4992292;28;20213;-83
2023/12/31 10:29:04;;;;;;;8.50;6.23;;;;;;;;;;4994528;28;20238;-83
2023/12/31 10:31:46;;;;;;;6.73;5.30;;;;;;;;;;5009134;28;20237;-86
2023/12/31 10:34:16;;;;;;;9.57;5.27;;;;;;;;;;4995342;28;20247;-84
2023/12/31 10:36:45;;;;;;;7.77;5.80;;;;;;;;;;4996035;28;20239;-86
2023/12/31 10:39:31;;;;;;;7.53;5.80;;;;;;;;;;4993206;28;20259;-85
2023/12/31 10:42:03;;;;;;;9.97;5.80;;;;;;;;;;4996868;28;20234;-84
2023/12/31 10:44:36;;;;;;;9.07;6.03;;;;;;;;;;4998928;28;20220;-84
2023/12/31 10:50:22;;;;;;;9.27;5.63;;;;;;;;;;4974672;28;20225;-84
2023/12/31 10:52:53;;;;;;;12.43;7.20;;;;;;;;;;4997442;28;20241;-85
2023/12/31 10:55:27;;;;;;;11.57;6.00;;;;;;;;;;4998926;28;20223;-86
2023/12/31 10:58:01;;;;;;;9.20;5.73;;;;;;;;;;4994284;28;20255;-84
2023/12/31 11:00:34;;;;;;;8.53;5.47;;;;;;;;;;4997537;28;20304;-86
2023/12/31 11:05:55;;;;;;;8.73;5.93;;;;;;;;;;5000888;28;20232;-85
2023/12/31 11:08:27;;;;;;;7.53;6.13;;;;;;;;;;4994326;28;20252;-84
2023/12/31 11:10:58;;;;;;;8.53;5.77;;;;;;;;;;5001378;28;20233;-87
2023/12/31 11:13:29;;;;;;;8.23;6.10;;;;;;;;;;4999536;28;20739;-84
2023/12/31 11:16:19;;;;;;;7.50;5.77;;;;;;;;;;4997327;28;20228;-84
2023/12/31 11:19:13;;;;;;;7.07;5.53;;;;;;;;;;4992829;28;20672;-87
2023/12/31 11:21:51;;;;;;;9.13;5.73;;;;;;;;;;5000103;28;20787;-85
2023/12/31 11:24:27;;;;;;;6.73;4.90;;;;;;;;;;5000841;28;20227;-85
2023/12/31 11:30:07;;;;;;;6.50;4.97;;;;;;;;;;4989046;28;20302;-85
2023/12/31 11:32:59;;;;;;;7.23;5.60;;;;;;;;;;5002595;28;20280;-84
2023/12/31 11:35:44;;;;;;;6.27;5.37;;;;;;;;;;4964553;28;20235;-87
2023/12/31 11:38:24;;;;;;;8.63;5.70;;;;;;;;;;4980746;28;20261;-85
2023/12/31 11:40:54;;;;;;;10.93;5.90;;;;;;;;;;4981091;28;20238;-87
2023/12/31 11:43:25;;;;;;;8.30;5.23;;;;;;;;;;4982699;28;20280;-84
2023/12/31 11:45:54;;;;;;;6.30;5.70;;;;;;;;;;4989575;28;20264;-87
2023/12/31 11:48:29;;;;;;;8.70;6.07;;;;;;;;;;4986940;28;20441;-84
2023/12/31 11:51:01;;;;;;;6.43;4.80;;;;;;;;;;4980263;28;20226;-85
2023/12/31 11:53:53;;;;;;;5.37;4.50;;;;;;;;;;4981734;28;20243;-84
2023/12/31 11:56:29;;;;;;;6.60;4.80;;;;;;;;;;4979522;28;20217;-85
2023/12/31 11:59:09;;;;;;;5.07;4.57;;;;;;;;;;4976171;28;20242;-87
2023/12/31 12:01:40;;;;;;;5.17;4.67;;;;;;;;;;4981431;28;20551;-86
2023/12/31 12:04:14;;;;;;;5.50;4.43;;;;;;;;;;4971799;28;20218;-85
2023/12/31 12:06:44;;;;;;;8.50;5.20;;;;;;;;;;4979225;28;20286;-85
2023/12/31 12:09:27;;;;;;;7.20;5.27;;;;;;;;;;4978558;28;20234;-85
2023/12/31 12:12:23;;;;;;;5.87;3.87;;;;;;;;;;4970628;28;20244;-86
2023/12/31 13:03:12;;;;;;;4.07;3.67;;;;;;;;;;4945272;29;20290;-85
2023/12/31 13:05:50;;;;;;;8.60;4.00;;;;;;;;;;4923866;29;20231;-84
2023/12/31 13:08:26;;;;;;;6.13;4.07;;;;;;;;;;4925482;29;20223;-87
2023/12/31 13:10:57;;;;;;;4.17;3.83;;;;;;;;;;4919806;29;20238;-86
2023/12/31 13:13:25;;;;;;;4.73;4.27;;;;;;;;;;4917751;29;20723;-84
2023/12/31 13:15:56;;;;;;;3.43;3.17;;;;;;;;;;4915279;29;20698;-84
2023/12/31 13:18:26;;;;;;;4.10;3.77;;;;;;;;;;4915602;29;20259;-84
2023/12/31 13:20:58;;;;;;;5.07;3.60;;;;;;;;;;4913489;29;20225;-85
2023/12/31 13:23:30;;;;;;;5.43;3.00;;;;;;;;;;4917609;29;20636;-84
2023/12/31 13:26:03;;;;;;;2.97;2.70;;;;;;;;;;4911587;29;20229;-84
2023/12/31 13:28:32;;;;;;;4.33;3.97;;;;;;;;;;4917929;29;20225;-84
2023/12/31 13:34:09;;;;;;;4.47;4.07;;;;;;;;;;4898162;29;20853;-82
2023/12/31 13:36:44;;;;;;;7.70;3.73;;;;;;;;;;4930243;29;20289;-85
2023/12/31 13:39:15;;;;;;;14.13;4.07;;;;;;;;;;4924339;29;20264;-83
2023/12/31 13:41:46;;;;;;;5.00;3.90;;;;;;;;;;4917427;29;20249;-85
2023/12/31 13:44:16;;;;;;;8.37;4.30;;;;;;;;;;4897040;29;20231;-84
2023/12/31 13:46:46;;;;;;;11.10;5.90;;;;;;;;;;4894309;29;20690;-86
2023/12/31 13:49:15;;;;;;;7.37;5.63;;;;;;;;;;4894627;29;20261;-83
2023/12/31 13:51:49;;;;;;;13.27;6.13;;;;;;;;;;4894583;29;20204;-83
2023/12/31 13:54:21;;;;;;;12.63;5.83;;;;;;;;;;4893112;29;20201;-84
2023/12/31 13:56:49;;;;;;;8.80;5.13;;;;;;;;;;4894958;29;20232;-85
2023/12/31 13:59:20;;;;;;;7.00;4.63;;;;;;;;;;4894484;29;20240;-84
2023/12/31 14:01:51;;;;;;;9.63;4.80;;;;;;;;;;4896431;29;20275;-83
2023/12/31 14:04:24;;;;;;;6.87;4.63;;;;;;;;;;4896749;29;20199;-83
2023/12/31 14:06:55;;;;;;;9.00;4.73;;;;;;;;;;4896563;29;20575;-84
2023/12/31 14:09:26;;;;;;;6.07;4.17;;;;;;;;;;4895819;29;20732;-83
2023/12/31 14:11:57;;;;;;;9.07;5.27;;;;;;;;;;4895519;29;20211;-85
2023/12/31 14:14:30;;;;;;;11.07;5.33;;;;;;;;;;4895025;29;20205;-84
2023/12/31 14:17:01;;;;;;;5.60;5.07;;;;;;;;;;4893965;29;20212;-83
2023/12/31 14:19:33;;;;;;;6.40;5.13;;;;;;;;;;4898299;29;20242;-84
2023/12/31 14:22:01;;;;;;;11.87;5.90;;;;;;;;;;4899273;29;20199;-83
2023/12/31 14:24:30;;;;;;;5.73;5.10;;;;;;;;;;4898660;29;20643;-84
2023/12/31 14:27:00;;;;;;;4.23;4.00;;;;;;;;;;4898364;29;20199;-84
2023/12/31 14:29:31;;;;;;;7.80;5.13;;;;;;;;;;4897969;29;20888;-85
2023/12/31 14:32:06;;;;;;;12.40;5.93;;;;;;;;;;4898248;29;20193;-83
2023/12/31 14:34:37;;;;;;;7.13;4.67;;;;;;;;;;4898514;29;20212;-83
2023/12/31 14:37:06;;;;;;;20.70;6.47;;;;;;;;;;4897500;29;20296;-85
2023/12/31 14:39:39;;;;;;;10.00;6.83;;;;;;;;;;4900373;29;20600;-84
2023/12/31 14:42:09;;;;;;;10.17;5.50;;;;;;;;;;4897779;29;20670;-84
2023/12/31 14:44:40;;;;;;;6.60;4.27;;;;;;;;;;4898129;29;20225;-86
2023/12/31 14:47:09;;;;;;;7.83;4.43;;;;;;;;;;4897037;29;20189;-84
2023/12/31 14:49:41;;;;;;;9.27;5.03;;;;;;;;;;4897326;29;20209;-83
2023/12/31 14:52:15;;;;;;;5.27;4.40;;;;;;;;;;4898512;29;20236;-85
2023/12/31 14:54:44;;;;;;;14.07;5.13;;;;;;;;;;4900505;29;20307;-86
2023/12/31 14:57:13;;;;;;;5.50;4.00;;;;;;;;;;4911945;29;20197;-85
2023/12/31 14:59:44;;;;;;;14.83;5.00;;;;;;;;;;4911936;29;20247;-85
2023/12/31 15:02:21;;;;;;;7.50;4.60;;;;;;;;;;4910007;29;20213;-84
2023/12/31 15:10:57;;;;;;;6.87;5.30;;;;;;;;;;4947426;28;20235;-85
2023/12/31 15:13:26;;;;;;;7.43;5.80;;;;;;;;;;4950936;29;20605;-85
2023/12/31 15:15:55;;;;;;;11.63;8.47;;;;;;;;;;4951073;29;20267;-85
2023/12/31 15:18:27;;;;;;;15.50;9.37;;;;;;;;;;4949634;29;20282;-85
2023/12/31 15:21:00;;;;;;;25.10;9.63;;;;;;;;;;4950635;29;20218;-83
2023/12/31 15:23:30;;;;;;;15.43;9.27;;;;;;;;;;4947825;29;20281;-85
2023/12/31 15:26:18;;;;;;;23.03;11.63;;;;;;;;;;4947587;29;20219;-84
2023/12/31 15:28:53;;;;;;;20.57;11.57;;;;;;;;;;4949084;29;20200;-86
2023/12/31 15:34:25;;;;;;;20.70;11.30;;;;;;;;;;4924399;29;20270;-84
2023/12/31 15:36:59;;;;;;;30.90;17.50;;;;;;;;;;4925852;29;20295;-86
2023/12/31 15:39:30;;;;;;;35.43;17.57;;;;;;;;;;4924485;29;20227;-86
2023/12/31 15:45:00;;;;;;;30.45;12.60;;;;;;;;;;5015481;27;2551222;-82
2023/12/31 15:47:35;;;;;;;13.57;8.27;;;;;;;;;;5118759;28;20203;-85
2023/12/31 15:50:07;;;;;;;48.33;19.37;;;;;;;;;;5117698;28;20216;-86
2023/12/31 15:52:44;;;;;;;52.87;20.90;;;;;;;;;;5117101;28;20186;-85
2023/12/31 15:55:25;;;;;;;55.83;23.43;;;;;;;;;;5140628;28;20403;-84
2023/12/31 15:58:06;;;;;;;50.27;22.53;;;;;;;;;;5142327;28;20240;-85
2023/12/31 16:00:47;;;;;;;44.33;21.20;;;;;;;;;;5141984;28;20202;-83
2023/12/31 16:03:22;;;;;;;31.23;15.13;;;;;;;;;;5141127;28;20783;-82
2023/12/31 16:08:45;;;;;;;22.33;12.57;;;;;;;;;;5110789;28;20259;-84
2023/12/31 16:11:19;;;;;;;29.07;15.43;;;;;;;;;;5115882;28;20189;-84